createdAt,value
2019-02-02T00:00:21.462Z,40.03
2019-02-02T00:02:15.149Z,40.03
2019-02-02T00:03:15.110Z,40.13
2019-02-02T00:05:08.848Z,39.84
2019-02-02T00:06:08.784Z,40.13
2019-02-02T00:08:03.179Z,40.79
2019-02-02T00:09:03.135Z,41.17
2019-02-02T00:10:56.842Z,40.79
2019-02-02T00:11:56.795Z,41.17
2019-02-02T00:13:50.641Z,41.83
2019-02-02T00:14:50.567Z,41.64
2019-02-02T00:16:44.864Z,41.74
2019-02-02T00:17:44.830Z,41.17
2019-02-02T00:19:38.543Z,41.27
2019-02-02T00:20:38.472Z,40.79
2019-02-02T00:22:32.164Z,42.02
2019-02-02T00:23:32.099Z,42.02
2019-02-02T00:25:25.823Z,43.35
2019-02-02T00:26:25.755Z,44.29
2019-02-02T00:28:19.337Z,44.58
2019-02-02T00:29:19.262Z,44.20
2019-02-02T00:31:12.999Z,45.15
2019-02-02T00:32:12.961Z,45.24
2019-02-02T00:34:06.711Z,45.62
2019-02-02T00:35:06.632Z,46.09
2019-02-02T00:37:00.213Z,45.81
2019-02-02T00:38:00.196Z,46.75
2019-02-02T00:39:53.946Z,48.46
2019-02-02T00:40:53.868Z,47.61
2019-02-02T00:42:47.594Z,46.19
2019-02-02T00:43:47.540Z,47.23
2019-02-02T00:45:41.288Z,47.61
2019-02-02T00:46:41.243Z,46.66
2019-02-02T00:48:34.958Z,48.08
2019-02-02T00:49:34.889Z,46.75
2019-02-02T00:51:28.397Z,47.42
2019-02-02T00:52:28.383Z,47.70
2019-02-02T00:54:23.154Z,47.42
2019-02-02T00:55:23.082Z,47.23
2019-02-02T00:57:16.756Z,47.13
2019-02-02T00:58:16.719Z,47.61
2019-02-02T00:59:16.790Z,47.99
2019-02-02T01:00:16.691Z,47.51
2019-02-02T01:01:16.678Z,47.70
2019-02-02T01:02:16.668Z,47.04
2019-02-02T01:03:16.650Z,47.13
2019-02-02T01:04:16.636Z,47.32
2019-02-02T01:05:16.651Z,47.04
2019-02-02T01:06:16.613Z,47.42
2019-02-02T01:07:16.601Z,47.61
2019-02-02T01:08:16.591Z,47.70
2019-02-02T01:09:16.577Z,47.51
2019-02-02T01:10:16.560Z,46.66
2019-02-02T01:11:16.550Z,46.94
2019-02-02T01:12:16.538Z,46.37
2019-02-02T01:13:16.522Z,46.66
2019-02-02T01:14:16.508Z,46.94
2019-02-02T01:15:16.492Z,46.66
2019-02-02T01:16:16.479Z,47.13
2019-02-02T01:17:16.468Z,47.61
2019-02-02T01:18:16.462Z,48.18
2019-02-02T01:19:16.444Z,47.51
2019-02-02T01:20:16.434Z,47.13
2019-02-02T01:21:16.419Z,46.47
2019-02-02T01:22:16.540Z,46.47
2019-02-02T01:23:16.392Z,46.37
2019-02-02T01:24:16.496Z,46.56
2019-02-02T01:25:16.368Z,46.56
2019-02-02T01:26:16.358Z,46.56
2019-02-02T01:27:16.349Z,46.94
2019-02-02T01:28:16.325Z,47.32
2019-02-02T01:29:16.313Z,46.28
2019-02-02T01:30:16.303Z,45.81
2019-02-02T01:31:16.294Z,45.90
2019-02-02T01:32:16.275Z,45.72
2019-02-02T01:33:16.263Z,45.81
2019-02-02T01:34:16.254Z,44.58
2019-02-02T01:35:16.237Z,44.20
2019-02-02T01:36:16.220Z,44.20
2019-02-02T01:37:16.220Z,43.26
2019-02-02T01:38:16.196Z,42.97
2019-02-02T01:39:16.195Z,42.97
2019-02-02T01:40:16.175Z,44.20
2019-02-02T01:41:16.162Z,44.10
2019-02-02T01:42:16.149Z,43.35
2019-02-02T01:43:16.136Z,44.10
2019-02-02T01:44:16.120Z,44.01
2019-02-02T01:45:16.105Z,44.10
2019-02-02T01:46:16.095Z,44.29
2019-02-02T01:47:16.083Z,44.20
2019-02-02T01:48:16.073Z,44.48
2019-02-02T01:49:16.061Z,44.39
2019-02-02T01:50:16.042Z,44.67
2019-02-02T01:51:16.030Z,44.20
2019-02-02T01:52:16.018Z,44.29
2019-02-02T01:53:16.007Z,43.44
2019-02-02T01:54:15.995Z,44.20
2019-02-02T01:55:15.980Z,45.15
2019-02-02T01:56:15.966Z,45.24
2019-02-02T01:57:15.955Z,44.67
2019-02-02T01:58:17.092Z,44.58
2019-02-02T01:59:15.928Z,44.86
2019-02-02T02:00:15.916Z,45.15
2019-02-02T02:01:15.900Z,44.58
2019-02-02T02:02:15.888Z,44.67
2019-02-02T02:03:15.876Z,44.67
2019-02-02T02:04:15.867Z,45.43
2019-02-02T02:05:15.848Z,46.00
2019-02-02T02:06:15.834Z,45.81
2019-02-02T02:07:15.830Z,46.00
2019-02-02T02:08:15.810Z,44.77
2019-02-02T02:09:15.800Z,45.72
2019-02-02T02:10:15.784Z,44.48
2019-02-02T02:11:15.779Z,44.67
2019-02-02T02:12:15.760Z,44.48
2019-02-02T02:13:15.746Z,44.48
2019-02-02T02:14:15.733Z,44.86
2019-02-02T02:15:15.724Z,44.77
2019-02-02T02:16:15.709Z,44.96
2019-02-02T02:17:15.696Z,45.34
2019-02-02T02:18:15.682Z,44.77
2019-02-02T02:19:15.668Z,45.24
2019-02-02T02:20:15.650Z,44.96
2019-02-02T02:21:15.644Z,44.39
2019-02-02T02:22:15.667Z,44.01
2019-02-02T02:23:15.617Z,44.29
2019-02-02T02:24:15.603Z,44.86
2019-02-02T02:25:15.587Z,45.72
2019-02-02T02:26:15.577Z,45.53
2019-02-02T02:27:15.563Z,44.58
2019-02-02T02:28:15.556Z,43.91
2019-02-02T02:29:15.540Z,43.91
2019-02-02T02:30:15.525Z,44.01
2019-02-02T02:31:15.511Z,43.91
2019-02-02T02:32:15.501Z,43.82
2019-02-02T02:33:15.484Z,44.10
2019-02-02T02:34:15.470Z,44.58
2019-02-02T02:35:15.461Z,44.10
2019-02-02T02:36:15.449Z,44.10
2019-02-02T02:37:15.435Z,44.29
2019-02-02T02:38:15.427Z,44.58
2019-02-02T02:39:15.410Z,44.58
2019-02-02T02:40:15.401Z,44.58
2019-02-02T02:41:15.380Z,44.01
2019-02-02T02:42:15.370Z,44.58
2019-02-02T02:43:15.359Z,44.86
2019-02-02T02:44:15.345Z,45.15
2019-02-02T02:45:15.333Z,45.90
2019-02-02T02:46:15.323Z,46.09
2019-02-02T02:47:15.301Z,46.47
2019-02-02T02:48:15.300Z,45.24
2019-02-02T02:49:15.279Z,45.72
2019-02-02T02:50:15.265Z,46.00
2019-02-02T02:51:15.256Z,46.28
2019-02-02T02:52:15.242Z,47.23
2019-02-02T02:53:15.222Z,46.85
2019-02-02T02:54:15.216Z,47.23
2019-02-02T02:55:15.410Z,47.42
2019-02-02T02:56:15.188Z,47.61
2019-02-02T02:57:15.178Z,47.23
2019-02-02T02:58:15.171Z,46.85
2019-02-02T02:59:15.149Z,46.75
2019-02-02T03:00:15.141Z,46.85
2019-02-02T03:01:15.119Z,46.37
2019-02-02T03:02:15.113Z,46.56
2019-02-02T03:03:15.099Z,46.75
2019-02-02T03:04:15.087Z,46.37
2019-02-02T03:05:15.073Z,46.66
2019-02-02T03:06:15.057Z,46.94
2019-02-02T03:07:15.046Z,47.89
2019-02-02T03:08:15.031Z,48.18
2019-02-02T03:09:15.021Z,48.93
2019-02-02T03:10:15.010Z,49.22
2019-02-02T03:11:14.994Z,49.79
2019-02-02T03:12:14.981Z,51.01
2019-02-02T03:13:14.969Z,50.26
2019-02-02T03:14:14.954Z,50.73
2019-02-02T03:15:14.957Z,50.63
2019-02-02T03:16:14.929Z,52.25
2019-02-02T03:17:14.928Z,52.44
2019-02-02T03:18:14.899Z,52.81
2019-02-02T03:19:14.911Z,52.34
2019-02-02T03:20:14.878Z,53.28
2019-02-02T03:21:14.868Z,53.09
2019-02-02T03:22:14.848Z,53.28
2019-02-02T03:23:14.841Z,52.25
2019-02-02T03:24:14.828Z,52.15
2019-02-02T03:25:14.821Z,53.28
2019-02-02T03:26:14.803Z,53.47
2019-02-02T03:27:14.787Z,53.57
2019-02-02T03:28:14.772Z,54.42
2019-02-02T03:29:14.760Z,54.42
2019-02-02T03:30:14.750Z,53.95
2019-02-02T03:31:14.742Z,53.47
2019-02-02T03:32:14.735Z,53.57
2019-02-02T03:33:14.714Z,54.33
2019-02-02T03:34:14.699Z,55.27
2019-02-02T03:35:14.687Z,55.27
2019-02-02T03:36:14.670Z,56.51
2019-02-02T03:37:14.657Z,57.26
2019-02-02T03:38:14.648Z,56.60
2019-02-02T03:39:14.637Z,57.17
2019-02-02T03:40:14.624Z,57.26
2019-02-02T03:41:14.609Z,57.26
2019-02-02T03:42:14.590Z,57.35
2019-02-02T03:43:14.582Z,58.68
2019-02-02T03:44:14.565Z,58.68
2019-02-02T03:45:14.556Z,58.30
2019-02-02T03:46:14.546Z,58.30
2019-02-02T03:47:14.532Z,57.26
2019-02-02T03:48:14.516Z,58.21
2019-02-02T03:49:14.502Z,58.02
2019-02-02T03:50:14.492Z,58.11
2019-02-02T03:51:14.477Z,56.70
2019-02-02T03:52:14.476Z,58.40
2019-02-02T03:53:14.459Z,58.78
2019-02-02T03:54:14.442Z,59.25
2019-02-02T03:55:14.427Z,59.63
2019-02-02T03:56:14.412Z,59.16
2019-02-02T03:57:14.403Z,60.00
2019-02-02T03:58:14.382Z,59.81
2019-02-02T03:59:14.377Z,58.87
2019-02-02T04:00:14.366Z,58.87
2019-02-02T04:01:14.356Z,59.34
2019-02-02T04:02:14.336Z,60.10
2019-02-02T04:03:14.331Z,59.63
2019-02-02T04:04:14.313Z,58.87
2019-02-02T04:05:14.305Z,58.87
2019-02-02T04:06:14.287Z,59.44
2019-02-02T04:07:14.275Z,58.87
2019-02-02T04:08:14.267Z,58.40
2019-02-02T04:09:14.321Z,58.78
2019-02-02T04:10:14.231Z,59.63
2019-02-02T04:11:14.225Z,58.02
2019-02-02T04:12:14.210Z,58.87
2019-02-02T04:13:14.204Z,58.78
2019-02-02T04:14:14.186Z,58.78
2019-02-02T04:15:14.172Z,60.38
2019-02-02T04:16:14.156Z,59.91
2019-02-02T04:17:14.143Z,58.49
2019-02-02T04:18:14.135Z,59.53
2019-02-02T04:19:14.126Z,60.10
2019-02-02T04:20:14.179Z,58.87
2019-02-02T04:21:14.097Z,60.48
2019-02-02T04:22:14.086Z,60.48
2019-02-02T04:23:14.068Z,60.96
2019-02-02T04:24:14.067Z,61.15
2019-02-02T04:25:14.042Z,60.77
2019-02-02T04:26:14.029Z,61.05
2019-02-02T04:27:14.023Z,62.47
2019-02-02T04:28:14.009Z,61.80
2019-02-02T04:29:17.720Z,61.90
2019-02-02T04:30:13.981Z,62.75
2019-02-02T04:31:13.963Z,62.85
2019-02-02T04:32:13.953Z,62.78
2019-02-02T04:33:13.939Z,64.11
2019-02-02T04:34:13.928Z,63.89
2019-02-02T04:35:13.921Z,64.96
2019-02-02T04:36:13.906Z,63.89
2019-02-02T04:37:13.889Z,64.11
2019-02-02T04:38:13.880Z,63.26
2019-02-02T04:39:13.863Z,63.64
2019-02-02T04:40:13.862Z,66.53
2019-02-02T04:41:13.840Z,65.44
2019-02-02T04:42:13.831Z,64.01
2019-02-02T04:43:13.821Z,65.63
2019-02-02T04:44:13.798Z,64.26
2019-02-02T04:45:13.791Z,65.81
2019-02-02T04:46:13.776Z,63.92
2019-02-02T04:47:13.765Z,63.64
2019-02-02T04:48:13.754Z,64.11
2019-02-02T04:49:13.743Z,64.58
2019-02-02T04:50:13.725Z,65.15
2019-02-02T04:51:13.713Z,66.19
2019-02-02T04:52:13.702Z,67.14
2019-02-02T04:53:13.688Z,67.33
2019-02-02T04:54:13.675Z,67.43
2019-02-02T04:55:13.665Z,69.03
2019-02-02T04:56:13.648Z,68.75
2019-02-02T04:57:13.638Z,69.03
2019-02-02T04:58:13.627Z,70.55
2019-02-02T04:59:13.617Z,69.51
2019-02-02T05:00:13.600Z,69.89
2019-02-02T05:01:13.590Z,67.33
2019-02-02T05:02:13.577Z,67.43
2019-02-02T05:03:13.562Z,68.94
2019-02-02T05:04:13.551Z,69.98
2019-02-02T05:05:13.536Z,70.07
2019-02-02T05:06:13.523Z,70.64
2019-02-02T05:07:13.512Z,70.55
2019-02-02T05:08:13.496Z,70.55
2019-02-02T05:09:13.491Z,70.45
2019-02-02T05:10:13.475Z,70.45
2019-02-02T05:11:13.462Z,70.64
2019-02-02T05:12:13.450Z,70.74
2019-02-02T05:13:13.437Z,70.26
2019-02-02T05:14:13.424Z,69.60
2019-02-02T05:15:13.405Z,69.70
2019-02-02T05:16:13.392Z,69.98
2019-02-02T05:17:13.388Z,68.08
2019-02-02T05:18:13.375Z,68.56
2019-02-02T05:19:13.360Z,68.56
2019-02-02T05:20:13.342Z,68.37
2019-02-02T05:21:13.334Z,67.99
2019-02-02T05:22:13.323Z,68.18
2019-02-02T05:23:13.307Z,67.43
2019-02-02T05:24:13.296Z,67.61
2019-02-02T05:25:13.284Z,67.43
2019-02-02T05:26:13.271Z,66.28
2019-02-02T05:27:13.257Z,63.82
2019-02-02T05:28:13.248Z,62.97
2019-02-02T05:29:13.232Z,63.92
2019-02-02T05:30:13.225Z,64.58
2019-02-02T05:31:13.211Z,64.87
2019-02-02T05:32:13.197Z,64.87
2019-02-02T05:33:13.188Z,64.11
2019-02-02T05:34:13.174Z,64.20
2019-02-02T05:35:13.161Z,62.78
2019-02-02T05:36:13.150Z,63.73
2019-02-02T05:37:13.134Z,63.64
2019-02-02T05:38:13.122Z,63.45
2019-02-02T05:39:13.117Z,63.45
2019-02-02T05:40:13.100Z,62.40
2019-02-02T05:41:13.082Z,62.02
2019-02-02T05:42:13.075Z,60.89
2019-02-02T05:43:13.058Z,60.70
2019-02-02T05:44:13.047Z,60.89
2019-02-02T05:45:13.059Z,60.61
2019-02-02T05:46:13.026Z,60.89
2019-02-02T05:47:13.015Z,59.66
2019-02-02T05:48:12.999Z,59.94
2019-02-02T05:49:12.991Z,60.32
2019-02-02T05:50:12.977Z,59.66
2019-02-02T05:51:12.962Z,60.03
2019-02-02T05:52:12.952Z,59.47
2019-02-02T05:53:12.944Z,59.00
2019-02-02T05:54:12.924Z,57.20
2019-02-02T05:55:12.925Z,57.95
2019-02-02T05:56:12.900Z,58.71
2019-02-02T05:57:12.888Z,58.81
2019-02-02T05:58:12.874Z,59.28
2019-02-02T05:59:12.866Z,59.38
2019-02-02T06:00:12.851Z,57.67
2019-02-02T06:01:12.842Z,57.48
2019-02-02T06:02:12.823Z,57.86
2019-02-02T06:03:12.813Z,58.24
2019-02-02T06:04:12.820Z,57.57
2019-02-02T06:05:12.789Z,57.20
2019-02-02T06:06:12.777Z,57.39
2019-02-02T06:07:12.768Z,57.48
2019-02-02T06:08:12.754Z,59.00
2019-02-02T06:09:12.871Z,60.13
2019-02-02T06:10:12.732Z,59.47
2019-02-02T06:11:12.717Z,60.61
2019-02-02T06:12:12.705Z,59.47
2019-02-02T06:13:12.693Z,60.41
2019-02-02T06:14:12.678Z,59.75
2019-02-02T06:15:12.664Z,60.70
2019-02-02T06:16:12.653Z,58.33
2019-02-02T06:17:12.638Z,58.62
2019-02-02T06:18:12.637Z,59.19
2019-02-02T06:19:12.621Z,58.43
2019-02-02T06:20:12.604Z,57.10
2019-02-02T06:21:12.592Z,56.34
2019-02-02T06:22:12.584Z,56.25
2019-02-02T06:23:12.567Z,55.96
2019-02-02T06:24:12.553Z,58.14
2019-02-02T06:25:12.548Z,58.24
2019-02-02T06:26:12.533Z,58.14
2019-02-02T06:27:12.522Z,58.71
2019-02-02T06:28:12.510Z,58.90
2019-02-02T06:29:12.498Z,59.66
2019-02-02T06:30:12.477Z,60.03
2019-02-02T06:31:12.472Z,60.99
2019-02-02T06:32:12.458Z,60.99
2019-02-02T06:33:12.445Z,59.94
2019-02-02T06:34:12.432Z,58.05
2019-02-02T06:35:12.424Z,58.14
2019-02-02T06:36:12.411Z,58.05
2019-02-02T06:37:12.392Z,60.22
2019-02-02T06:38:12.381Z,60.41
2019-02-02T06:39:12.374Z,60.13
2019-02-02T06:40:12.360Z,60.22
2019-02-02T06:41:12.346Z,60.32
2019-02-02T06:42:12.339Z,60.70
2019-02-02T06:43:12.325Z,60.51
2019-02-02T06:44:12.307Z,59.00
2019-02-02T06:45:12.294Z,59.19
2019-02-02T06:46:12.280Z,59.00
2019-02-02T06:47:12.278Z,58.90
2019-02-02T06:48:12.268Z,58.90
2019-02-02T06:49:12.251Z,59.56
2019-02-02T06:50:12.241Z,58.14
2019-02-02T06:51:12.220Z,58.05
2019-02-02T06:52:12.209Z,58.81
2019-02-02T06:53:12.202Z,58.14
2019-02-02T06:54:12.186Z,58.14
2019-02-02T06:55:12.172Z,58.90
2019-02-02T06:56:12.160Z,59.38
2019-02-02T06:57:12.150Z,58.81
2019-02-02T06:58:12.136Z,59.00
2019-02-02T06:59:12.128Z,57.20
2019-02-02T07:00:16.206Z,55.87
2019-02-02T07:01:12.102Z,55.30
2019-02-02T07:02:12.084Z,54.74
2019-02-02T07:03:12.077Z,53.41
2019-02-02T07:04:12.065Z,53.59
2019-02-02T07:05:12.049Z,54.83
2019-02-02T07:06:12.037Z,54.45
2019-02-02T07:07:12.025Z,53.41
2019-02-02T07:08:12.015Z,53.59
2019-02-02T07:09:12.006Z,54.45
2019-02-02T07:10:11.989Z,53.50
2019-02-02T07:11:11.978Z,54.35
2019-02-02T07:12:11.957Z,54.16
2019-02-02T07:13:11.949Z,51.70
2019-02-02T07:14:11.936Z,52.46
2019-02-02T07:15:11.923Z,52.84
2019-02-02T07:16:11.916Z,54.16
2019-02-02T07:17:11.904Z,54.14
2019-02-02T07:18:11.888Z,51.20
2019-02-02T07:19:11.877Z,50.09
2019-02-02T07:20:11.863Z,49.81
2019-02-02T07:21:11.851Z,48.77
2019-02-02T07:22:11.837Z,48.49
2019-02-02T07:23:11.832Z,48.01
2019-02-02T07:24:11.817Z,50.19
2019-02-02T07:25:11.802Z,49.81
2019-02-02T07:26:11.787Z,50.47
2019-02-02T07:27:11.776Z,51.42
2019-02-02T07:28:11.772Z,50.85
2019-02-02T07:29:11.754Z,51.32
2019-02-02T07:30:11.735Z,50.73
2019-02-02T07:31:11.729Z,49.50
2019-02-02T07:32:11.714Z,49.05
2019-02-02T07:33:11.701Z,51.99
2019-02-02T07:34:11.684Z,53.00
2019-02-02T07:35:11.674Z,50.57
2019-02-02T07:36:11.663Z,49.33
2019-02-02T07:37:11.651Z,51.39
2019-02-02T07:38:11.635Z,54.35
2019-02-02T07:39:11.626Z,54.80
2019-02-02T07:40:11.613Z,53.47
2019-02-02T07:41:11.609Z,53.69
2019-02-02T07:42:11.591Z,54.93
2019-02-02T07:43:11.577Z,55.11
2019-02-02T07:44:11.566Z,55.56
2019-02-02T07:45:11.555Z,55.18
2019-02-02T07:46:15.083Z,56.03
2019-02-02T07:47:11.529Z,54.42
2019-02-02T07:48:11.515Z,54.42
2019-02-02T07:49:11.499Z,54.45
2019-02-02T07:50:11.493Z,55.58
2019-02-02T07:51:11.475Z,55.27
2019-02-02T07:52:11.569Z,55.56
2019-02-02T07:53:11.455Z,55.30
2019-02-02T07:54:11.435Z,54.45
2019-02-02T07:55:11.426Z,55.87
2019-02-02T07:56:11.414Z,57.26
2019-02-02T07:57:11.409Z,57.10
2019-02-02T07:58:11.390Z,58.05
2019-02-02T07:59:11.377Z,57.86
2019-02-02T08:00:11.365Z,59.00
2019-02-02T08:01:11.355Z,56.44
2019-02-02T08:02:11.336Z,57.26
2019-02-02T08:03:11.328Z,57.20
2019-02-02T08:04:11.319Z,57.29
2019-02-02T08:05:11.305Z,54.45
2019-02-02T08:06:11.292Z,55.77
2019-02-02T08:07:11.283Z,56.91
2019-02-02T08:08:11.265Z,57.39
2019-02-02T08:09:11.254Z,56.63
2019-02-02T08:10:11.241Z,58.14
2019-02-02T08:11:11.234Z,58.14
2019-02-02T08:12:11.215Z,55.96
2019-02-02T08:13:11.203Z,56.25
2019-02-02T08:14:11.590Z,55.77
2019-02-02T08:15:11.179Z,55.02
2019-02-02T08:16:11.160Z,54.45
2019-02-02T08:17:11.154Z,54.93
2019-02-02T08:18:11.141Z,55.21
2019-02-02T08:19:11.129Z,56.25
2019-02-02T08:20:11.120Z,54.83
2019-02-02T08:21:11.106Z,53.50
2019-02-02T08:22:11.085Z,53.41
2019-02-02T08:23:11.094Z,54.26
2019-02-02T08:24:11.063Z,55.58
2019-02-02T08:25:11.059Z,55.30
2019-02-02T08:26:11.040Z,53.41
2019-02-02T08:27:11.031Z,53.78
2019-02-02T08:28:11.017Z,52.08
2019-02-02T08:29:11.005Z,51.99
2019-02-02T08:30:10.991Z,51.04
2019-02-02T08:31:10.981Z,51.42
2019-02-02T08:32:10.967Z,50.95
2019-02-02T08:33:10.957Z,51.89
2019-02-02T08:34:10.941Z,52.08
2019-02-02T08:35:10.931Z,50.47
2019-02-02T08:36:10.915Z,50.38
2019-02-02T08:37:10.902Z,51.23
2019-02-02T08:38:10.891Z,51.23
2019-02-02T08:39:10.882Z,51.42
2019-02-02T08:40:10.871Z,48.86
2019-02-02T08:41:10.852Z,49.62
2019-02-02T08:42:10.841Z,49.81
2019-02-02T08:43:10.832Z,49.05
2019-02-02T08:44:10.819Z,49.71
2019-02-02T08:45:10.802Z,48.68
2019-02-02T08:46:10.795Z,48.96
2019-02-02T08:47:10.781Z,47.82
2019-02-02T08:48:10.772Z,44.89
2019-02-02T08:49:10.759Z,44.13
2019-02-02T08:50:10.739Z,44.89
2019-02-02T08:51:10.729Z,45.36
2019-02-02T08:52:10.717Z,45.26
2019-02-02T08:53:10.713Z,44.51
2019-02-02T08:54:10.697Z,45.07
2019-02-02T08:55:10.680Z,44.79
2019-02-02T08:56:10.667Z,45.07
2019-02-02T08:57:10.669Z,44.32
2019-02-02T08:58:10.682Z,43.46
2019-02-02T08:59:10.700Z,44.13
2019-02-02T09:00:10.620Z,41.95
2019-02-02T09:01:10.609Z,43.08
2019-02-02T09:02:10.591Z,42.04
2019-02-02T09:03:10.584Z,43.65
2019-02-02T09:04:10.596Z,44.22
2019-02-02T09:05:10.711Z,42.23
2019-02-02T09:06:10.540Z,44.13
2019-02-02T09:07:10.530Z,42.99
2019-02-02T09:08:10.518Z,43.08
2019-02-02T09:09:10.504Z,44.13
2019-02-02T09:10:10.491Z,42.23
2019-02-02T09:11:10.481Z,42.99
2019-02-02T09:12:10.467Z,44.79
2019-02-02T09:13:10.457Z,44.89
2019-02-02T09:14:10.446Z,44.60
2019-02-02T09:15:10.435Z,46.02
2019-02-02T09:16:10.425Z,46.21
2019-02-02T09:17:10.409Z,45.17
2019-02-02T09:18:10.389Z,45.17
2019-02-02T09:19:10.385Z,44.70
2019-02-02T09:20:10.371Z,42.71
2019-02-02T09:21:10.360Z,42.90
2019-02-02T09:22:10.348Z,44.22
2019-02-02T09:23:10.336Z,44.22
2019-02-02T09:24:10.322Z,46.12
2019-02-02T09:25:10.314Z,47.53
2019-02-02T09:26:10.296Z,47.82
2019-02-02T09:27:10.284Z,49.33
2019-02-02T09:28:10.269Z,48.96
2019-02-02T09:29:10.549Z,47.16
2019-02-02T09:30:10.248Z,48.10
2019-02-02T09:31:15.781Z,46.78
2019-02-02T09:32:10.228Z,52.27
2019-02-02T09:33:10.211Z,52.18
2019-02-02T09:34:10.199Z,54.55
2019-02-02T09:35:10.187Z,53.41
2019-02-02T09:36:10.180Z,53.31
2019-02-02T09:37:10.162Z,53.50
2019-02-02T09:38:12.276Z,53.22
2019-02-02T09:39:10.131Z,52.08
2019-02-02T09:40:10.127Z,53.31
2019-02-02T09:41:10.113Z,54.35
2019-02-02T09:42:10.103Z,55.96
2019-02-02T09:43:10.087Z,55.87
2019-02-02T09:44:10.094Z,57.29
2019-02-02T09:45:10.065Z,59.00
2019-02-02T09:46:10.050Z,58.14
2019-02-02T09:47:10.033Z,59.94
2019-02-02T09:48:10.030Z,59.75
2019-02-02T09:49:10.016Z,55.87
2019-02-02T09:50:10.001Z,56.06
2019-02-02T09:51:09.991Z,56.82
2019-02-02T09:52:09.975Z,58.05
2019-02-02T09:53:09.969Z,59.94
2019-02-02T09:54:09.945Z,62.31
2019-02-02T09:55:09.942Z,61.27
2019-02-02T09:56:09.930Z,58.90
2019-02-02T09:57:09.921Z,60.13
2019-02-02T09:58:09.912Z,61.55
2019-02-02T09:59:09.943Z,62.88
2019-02-02T10:00:09.877Z,64.11
2019-02-02T10:01:09.870Z,62.88
2019-02-02T10:02:09.857Z,62.31
2019-02-02T10:03:09.844Z,63.35
2019-02-02T10:04:09.836Z,63.92
2019-02-02T10:05:09.817Z,63.82
2019-02-02T10:06:09.810Z,63.35
2019-02-02T10:07:09.893Z,61.74
2019-02-02T10:08:09.786Z,63.16
2019-02-02T10:09:09.774Z,63.64
2019-02-02T10:10:09.761Z,63.64
2019-02-02T10:11:09.778Z,66.57
2019-02-02T10:12:09.736Z,69.22
2019-02-02T10:13:09.722Z,69.51
2019-02-02T10:14:09.712Z,70.45
2019-02-02T10:15:09.703Z,67.80
2019-02-02T10:16:09.688Z,67.14
2019-02-02T10:17:09.677Z,68.75
2019-02-02T10:18:09.691Z,67.33
2019-02-02T10:19:09.648Z,67.24
2019-02-02T10:20:09.646Z,65.06
2019-02-02T10:21:09.645Z,68.18
2019-02-02T10:22:09.631Z,67.61
2019-02-02T10:23:09.603Z,66.76
2019-02-02T10:24:09.595Z,66.86
2019-02-02T10:25:09.578Z,69.03
2019-02-02T10:26:09.569Z,68.18
2019-02-02T10:27:09.564Z,66.95
2019-02-02T10:28:09.543Z,63.92
2019-02-02T10:29:09.533Z,65.25
2019-02-02T10:30:09.523Z,65.63
2019-02-02T10:31:09.507Z,66.28
2019-02-02T10:32:09.495Z,66.57
2019-02-02T10:33:09.484Z,66.47
2019-02-02T10:34:12.341Z,67.14
2019-02-02T10:35:09.463Z,66.76
2019-02-02T10:36:09.447Z,65.25
2019-02-02T10:37:09.435Z,65.06
2019-02-02T10:38:09.416Z,66.09
2019-02-02T10:39:09.409Z,67.99
2019-02-02T10:40:09.395Z,66.28
2019-02-02T10:41:09.384Z,66.57
2019-02-02T10:42:09.370Z,67.71
2019-02-02T10:43:09.362Z,65.72
2019-02-02T10:44:09.350Z,63.26
2019-02-02T10:45:09.330Z,65.44
2019-02-02T10:46:10.863Z,65.06
2019-02-02T10:47:09.306Z,66.67
2019-02-02T10:48:09.315Z,67.71
2019-02-02T10:49:09.284Z,68.65
2019-02-02T10:50:09.275Z,67.24
2019-02-02T10:51:09.259Z,63.73
2019-02-02T10:52:09.249Z,63.45
2019-02-02T10:53:09.243Z,65.63
2019-02-02T10:54:09.226Z,67.99
2019-02-02T10:55:09.213Z,68.08
2019-02-02T10:56:09.198Z,66.57
2019-02-02T10:57:09.222Z,67.14
2019-02-02T10:58:09.172Z,66.28
2019-02-02T10:59:09.172Z,66.57
2019-02-02T11:00:09.156Z,66.38
2019-02-02T11:01:09.142Z,65.63
2019-02-02T11:02:09.127Z,71.97
2019-02-02T11:03:09.117Z,70.17
2019-02-02T11:04:09.111Z,69.98
2019-02-02T11:05:09.093Z,69.03
2019-02-02T11:06:09.186Z,71.02
2019-02-02T11:07:09.088Z,70.83
2019-02-02T11:08:09.058Z,70.64
2019-02-02T11:09:09.137Z,69.22
2019-02-02T11:10:09.035Z,70.17
2019-02-02T11:11:09.086Z,76.23
2019-02-02T11:12:09.009Z,75.95
2019-02-02T11:13:09.088Z,72.82
2019-02-02T11:14:09.152Z,73.77
2019-02-02T11:15:08.995Z,75.85
2019-02-02T11:16:08.989Z,75.57
2019-02-02T11:17:08.953Z,72.06
2019-02-02T11:18:08.984Z,72.73
2019-02-02T11:19:09.022Z,72.34
2019-02-02T11:20:08.959Z,75.19
2019-02-02T11:21:09.029Z,73.77
2019-02-02T11:22:08.899Z,74.43
2019-02-02T11:23:09.022Z,72.92
2019-02-02T11:24:09.033Z,73.58
2019-02-02T11:25:08.899Z,71.12
2019-02-02T11:26:08.961Z,73.58
2019-02-02T11:27:08.962Z,75.57
2019-02-02T11:28:08.828Z,75.95
2019-02-02T11:29:08.842Z,75.57
2019-02-02T11:30:08.890Z,75.95
2019-02-02T11:31:08.779Z,74.33
2019-02-02T11:32:08.769Z,71.40
2019-02-02T11:33:08.758Z,70.55
2019-02-02T11:34:08.742Z,70.07
2019-02-02T11:35:08.731Z,68.75
2019-02-02T11:36:08.716Z,68.65
2019-02-02T11:37:08.706Z,69.98
2019-02-02T11:38:08.695Z,69.32
2019-02-02T11:39:08.683Z,70.17
2019-02-02T11:40:08.669Z,67.24
2019-02-02T11:41:08.674Z,66.95
2019-02-02T11:42:08.641Z,66.09
2019-02-02T11:43:08.627Z,69.51
2019-02-02T11:44:08.627Z,68.94
2019-02-02T11:45:08.605Z,69.79
2019-02-02T11:46:08.597Z,70.45
2019-02-02T11:47:08.586Z,70.17
2019-02-02T11:48:08.570Z,74.81
2019-02-02T11:49:08.557Z,74.05
2019-02-02T11:50:08.549Z,72.44
2019-02-02T11:51:08.540Z,74.52
2019-02-02T11:52:08.522Z,73.58
2019-02-02T11:53:08.510Z,74.43
2019-02-02T11:54:08.497Z,74.90
2019-02-02T11:55:08.483Z,70.45
2019-02-02T11:56:08.477Z,69.51
2019-02-02T11:57:08.465Z,71.59
2019-02-02T11:58:08.452Z,75.38
2019-02-02T11:59:08.440Z,73.39
2019-02-02T12:00:08.427Z,73.58
2019-02-02T12:01:08.416Z,73.20
2019-02-02T12:02:14.428Z,68.94
2019-02-02T12:03:08.385Z,68.84
2019-02-02T12:04:08.373Z,74.52
2019-02-02T12:05:08.399Z,73.58
2019-02-02T12:06:08.353Z,75.38
2019-02-02T12:07:08.340Z,73.20
2019-02-02T12:08:08.332Z,71.50
2019-02-02T12:09:08.318Z,70.74
2019-02-02T12:10:08.301Z,69.89
2019-02-02T12:11:08.292Z,77.27
2019-02-02T12:12:08.282Z,72.92
2019-02-02T12:13:08.270Z,68.94
2019-02-02T12:14:08.254Z,74.52
2019-02-02T12:15:08.241Z,76.61
2019-02-02T12:16:08.230Z,76.23
2019-02-02T12:17:08.215Z,70.17
2019-02-02T12:18:08.205Z,74.43
2019-02-02T12:19:08.193Z,73.20
2019-02-02T12:20:08.180Z,72.16
2019-02-02T12:21:08.168Z,76.14
2019-02-02T12:22:08.157Z,75.85
2019-02-02T12:23:08.139Z,73.49
2019-02-02T12:24:15.822Z,77.37
2019-02-02T12:25:08.126Z,73.11
2019-02-02T12:26:08.110Z,75.85
2019-02-02T12:27:08.097Z,75.76
2019-02-02T12:28:09.277Z,75.95
2019-02-02T12:29:08.070Z,73.68
2019-02-02T12:30:08.055Z,72.25
2019-02-02T12:31:08.045Z,75.28
2019-02-02T12:32:08.036Z,75.09
2019-02-02T12:33:08.025Z,74.33
2019-02-02T12:34:08.008Z,74.81
2019-02-02T12:35:08.000Z,71.97
2019-02-02T12:36:07.985Z,73.30
2019-02-02T12:37:07.968Z,71.31
2019-02-02T12:38:07.961Z,71.97
2019-02-02T12:39:07.953Z,71.78
2019-02-02T12:40:07.939Z,68.84
2019-02-02T12:41:07.929Z,68.08
2019-02-02T12:42:07.913Z,66.76
2019-02-02T12:43:07.903Z,67.24
2019-02-02T12:44:07.890Z,65.25
2019-02-02T12:45:07.873Z,64.30
2019-02-02T12:46:07.863Z,61.36
2019-02-02T12:47:07.849Z,60.61
2019-02-02T12:48:07.841Z,57.95
2019-02-02T12:49:07.844Z,53.50
2019-02-02T12:50:07.812Z,51.42
2019-02-02T12:51:07.801Z,52.56
2019-02-02T12:52:07.785Z,50.28
2019-02-02T12:53:07.777Z,50.66
2019-02-02T12:54:07.765Z,50.76
2019-02-02T12:55:07.752Z,50.09
2019-02-02T12:56:07.740Z,48.10
2019-02-02T12:57:07.723Z,46.59
2019-02-02T12:58:07.712Z,48.68
2019-02-02T12:59:07.705Z,48.96
2019-02-02T13:00:07.690Z,49.90
2019-02-02T13:01:07.681Z,47.82
2019-02-02T13:02:07.660Z,48.77
2019-02-02T13:03:07.652Z,47.63
2019-02-02T13:04:07.640Z,46.78
2019-02-02T13:05:07.626Z,46.50
2019-02-02T13:06:07.708Z,44.13
2019-02-02T13:07:07.599Z,44.51
2019-02-02T13:08:07.599Z,44.70
2019-02-02T13:09:07.578Z,42.52
2019-02-02T13:10:07.563Z,43.56